This is the latest recevied weather packets stored in our database for station/object XW7RMR. If no packets are shown the sender has not sent any weather packets the latest 10 day(s).
| Time | Temp. | Humidity | Pressure | Rain* | Wind** | Luminosity | Snow |
|---|---|---|---|---|---|---|---|
| 1778022087 | 17.78° C | 67% | 1014.5 hPa | 0 mm | - | 412 W/m² | - |
| 1778021783 | 18.33° C | 67% | 1014.5 hPa | 0 mm | - | 656 W/m² | - |
| 1778021480 | 17.78° C | 69% | 1014.7 hPa | 0 mm | - | 429 W/m² | - |
| 1778021176 | 18.33° C | 66% | 1014.7 hPa | 0 mm | - | 370 W/m² | - |
| 1778020874 | 17.78° C | 68% | 1014.8 hPa | 0 mm | - | 362 W/m² | - |
| 1778020571 | 17.78° C | 67% | 1014.8 hPa | 0 mm | - | 417 W/m² | - |
| 1778020267 | 17.78° C | 69% | 1015 hPa | 0 mm | - | 370 W/m² | - |
| 1778019964 | 17.22° C | 68% | 1014.9 hPa | 0 mm | - | 350 W/m² | - |
| 1778019660 | 17.22° C | 70% | 1014.9 hPa | 0 mm | - | 401 W/m² | - |
| 1778019357 | 18.33° C | 67% | 1015 hPa | 0 mm | - | 391 W/m² | - |
| 1778019053 | 18.33° C | 66% | 1014.9 hPa | 0 mm | - | 367 W/m² | - |
| 1778018751 | 17.22° C | 68% | 1015 hPa | 0 mm | - | 359 W/m² | - |
| 1778018448 | 18.33° C | 65% | 1014.9 hPa | 0 mm | - | 375 W/m² | - |
| 1778018146 | 17.78° C | 67% | 1015 hPa | 0 mm | - | 370 W/m² | - |
| 1778017844 | 17.22° C | 69% | 1015.1 hPa | 0 mm | - | 385 W/m² | - |
| 1778017542 | 17.78° C | 67% | 1015.2 hPa | 0 mm | - | 299 W/m² | - |
| 1778017238 | 17.78° C | 67% | 1015.1 hPa | 0 mm | - | 369 W/m² | - |
| 1778016936 | 17.78° C | 67% | 1015.2 hPa | 0 mm | - | 326 W/m² | - |
| 1778016632 | 17.78° C | 67% | 1015.2 hPa | 0 mm | - | 362 W/m² | - |
| 1778016329 | 16.67° C | 70% | 1015.2 hPa | 0 mm | - | 400 W/m² | - |
| 1778016026 | 16.67° C | 69% | 1015.1 hPa | 0 mm | - | 450 W/m² | - |
| 1778015723 | 16.67° C | 69% | 1015.3 hPa | 0 mm | - | 456 W/m² | - |
| 1778015420 | 17.22° C | 68% | 1015.4 hPa | 0 mm | - | 394 W/m² | - |
| 1778015116 | 16.67° C | 70% | 1015.3 hPa | 0 mm | - | 341 W/m² | - |
| 1778014814 | 16.11° C | 73% | 1015.4 hPa | 0 mm | - | 297 W/m² | - |
* Rain latest hour (hover to see other rain measurements)
** Current wind speed in m/s (hover to see current wind gust speed)